Time;durP1;ratioP1;P1;durP2;ratioP2;P2;SDS_P1;SDS_P2;PMS_P1;PMS_P2;Temp;Humidity;BMP_temperature;BMP_pressure;BME280_temperature;BME280_humidity;BME280_pressure;Samples;Min_cycle;Max_cycle;Signal;HPM_P1;HPM_P2
2021/10/09 00:00:58;;;;;;;58.80;3.20;;;6.80;1.00;;;;;;5132824;27;20291;-74
2021/10/09 00:03:25;;;;;;;58.60;2.97;;;6.70;1.00;;;;;;5132789;27;20488;-73
2021/10/09 00:05:52;;;;;;;58.27;2.90;;;6.70;1.00;;;;;;5132524;27;20493;-73
2021/10/09 00:08:20;;;;;;;66.40;3.97;;;6.70;1.00;;;;;;5132439;27;20885;-73
2021/10/09 00:10:47;;;;;;;58.47;2.70;;;6.70;1.00;;;;;;5133037;27;20529;-73
2021/10/09 00:13:15;;;;;;;58.57;2.70;;;6.60;1.00;;;;;;5132508;27;20533;-74
2021/10/09 00:15:42;;;;;;;59.20;3.55;;;6.60;1.00;;;;;;5132006;27;20451;-74
2021/10/09 00:18:09;;;;;;;58.80;3.00;;;6.60;1.00;;;;;;5132791;27;20319;-74
2021/10/09 00:20:36;;;;;;;58.80;3.10;;;6.50;1.00;;;;;;5121079;27;20208;-73
2021/10/09 00:23:03;;;;;;;58.70;2.90;;;6.50;1.00;;;;;;5111607;28;20314;-73
2021/10/09 00:25:31;;;;;;;58.45;2.80;;;6.50;1.00;;;;;;5111471;28;20599;-74
2021/10/09 00:27:58;;;;;;;58.70;2.90;;;6.40;1.00;;;;;;5113840;27;20323;-74
2021/10/09 00:30:25;;;;;;;58.70;2.90;;;6.40;1.00;;;;;;5132255;27;20628;-73
2021/10/09 00:32:52;;;;;;;58.78;3.00;;;6.40;1.00;;;;;;5132374;27;20282;-73
2021/10/09 00:35:19;;;;;;;58.92;3.10;;;6.40;1.00;;;;;;5132290;27;20744;-74
2021/10/09 00:37:46;;;;;;;58.90;3.25;;;6.30;1.00;;;;;;5132308;27;20580;-73
2021/10/09 00:40:13;;;;;;;58.35;2.58;;;6.30;1.00;;;;;;5132217;27;20230;-73
2021/10/09 00:42:41;;;;;;;66.32;4.07;;;6.30;1.00;;;;;;5131934;28;20227;-73
2021/10/09 00:45:09;;;;;;;58.55;2.90;;;6.30;1.00;;;;;;5132505;28;20266;-73
2021/10/09 00:47:36;;;;;;;58.83;2.95;;;6.20;1.00;;;;;;5131803;28;20206;-73
2021/10/09 00:50:04;;;;;;;58.50;2.90;;;6.20;1.00;;;;;;5132300;28;20300;-74
2021/10/09 00:52:34;;;;;;;59.10;2.97;;;6.20;1.00;;;;;;5130532;28;20199;-73
2021/10/09 00:55:03;;;;;;;58.70;2.90;;;6.20;1.00;;;;;;5131949;28;20208;-74
2021/10/09 00:57:31;;;;;;;58.70;2.90;;;6.20;1.00;;;;;;5131837;28;20578;-73
2021/10/09 01:00:01;;;;;;;58.58;2.83;;;6.10;1.00;;;;;;5132645;28;20295;-73
2021/10/09 01:02:28;;;;;;;60.55;4.47;;;6.10;1.00;;;;;;5131817;28;20315;-73
2021/10/09 01:04:58;;;;;;;59.67;3.63;;;6.10;1.00;;;;;;5131873;28;20636;-73
2021/10/09 01:07:25;;;;;;;58.58;3.10;;;6.10;1.00;;;;;;5131693;28;20303;-74
2021/10/09 01:09:52;;;;;;;58.50;2.80;;;6.00;1.00;;;;;;5131397;28;20317;-73
2021/10/09 01:12:19;;;;;;;58.45;2.85;;;6.00;1.00;;;;;;5132363;28;20290;-74
2021/10/09 01:14:46;;;;;;;58.97;3.13;;;6.00;1.00;;;;;;5131755;28;20293;-73
2021/10/09 01:17:15;;;;;;;59.42;2.90;;;6.00;1.00;;;;;;5131575;28;20204;-73
2021/10/09 01:19:43;;;;;;;58.85;3.05;;;6.00;1.00;;;;;;5132072;28;20287;-73
2021/10/09 01:22:11;;;;;;;58.60;2.88;;;6.00;1.00;;;;;;5131991;28;20203;-74
2021/10/09 01:24:39;;;;;;;58.42;2.90;;;6.10;1.00;;;;;;5130261;28;20211;-74
2021/10/09 01:27:06;;;;;;;58.65;3.20;;;6.10;1.00;;;;;;5131899;28;20627;-74
2021/10/09 01:29:34;;;;;;;58.90;3.10;;;6.20;1.00;;;;;;5131238;28;20258;-73
2021/10/09 01:32:01;;;;;;;59.15;4.07;;;6.20;1.00;;;;;;5134211;27;20301;-73
2021/10/09 01:34:30;;;;;;;59.83;4.97;;;6.30;1.00;;;;;;5135611;27;20230;-74
2021/10/09 01:36:57;;;;;;;58.80;3.17;;;6.30;1.00;;;;;;5135246;27;20240;-73
2021/10/09 01:39:25;;;;;;;58.70;2.90;;;6.30;1.00;;;;;;5135849;27;20299;-73
2021/10/09 01:41:54;;;;;;;58.60;2.85;;;6.30;1.00;;;;;;5135474;27;20210;-73
2021/10/09 01:44:20;;;;;;;58.22;2.70;;;6.30;1.00;;;;;;5133159;27;20233;-73
2021/10/09 01:46:47;;;;;;;58.50;2.78;;;6.30;1.00;;;;;;5134933;27;20284;-73
2021/10/09 01:49:14;;;;;;;58.78;2.92;;;6.40;1.00;;;;;;5135305;27;20309;-73
2021/10/09 01:51:41;;;;;;;59.80;3.10;;;6.40;1.00;;;;;;5135334;27;20215;-72
2021/10/09 01:54:08;;;;;;;58.53;3.23;;;6.40;1.00;;;;;;5135616;27;20626;-73
2021/10/09 01:56:36;;;;;;;58.67;3.20;;;6.40;1.00;;;;;;5133221;27;20806;-73
2021/10/09 01:59:03;;;;;;;58.28;2.58;;;6.40;1.00;;;;;;5135219;27;20264;-73
2021/10/09 02:01:30;;;;;;;59.00;3.30;;;6.40;1.00;;;;;;5135389;27;20290;-73
2021/10/09 02:03:57;;;;;;;59.00;3.53;;;6.40;1.00;;;;;;5134941;27;20485;-73
2021/10/09 02:06:24;;;;;;;58.70;3.53;;;6.40;1.00;;;;;;5134526;27;20222;-73
2021/10/09 02:08:51;;;;;;;58.67;2.90;;;6.40;1.00;;;;;;5135073;27;20260;-74
2021/10/09 02:11:20;;;;;;;58.60;2.83;;;6.40;1.00;;;;;;5135174;27;20207;-73
2021/10/09 02:13:53;;;;;;;58.80;2.70;;;6.30;1.00;;;;;;5135270;27;20203;-73
2021/10/09 02:16:46;;;;;;;58.58;3.45;;;6.30;1.00;;;;;;5135020;27;20208;-73
2021/10/09 02:24:56;;;;;;;58.70;3.15;;;6.20;1.00;;;;;;5071301;28;20303;-73
2021/10/09 02:27:23;;;;;;;58.58;3.00;;;6.20;1.00;;;;;;5071175;28;20752;-73
2021/10/09 02:29:52;;;;;;;58.70;3.00;;;6.10;1.00;;;;;;5089165;28;20242;-73
2021/10/09 02:32:18;;;;;;;58.38;2.90;;;6.10;1.00;;;;;;5113752;28;20212;-73
2021/10/09 02:34:45;;;;;;;58.40;2.90;;;6.10;1.00;;;;;;5114490;28;20305;-74
2021/10/09 02:37:12;;;;;;;58.58;2.83;;;6.00;1.00;;;;;;5113880;28;20239;-73
2021/10/09 02:39:39;;;;;;;58.58;3.40;;;5.90;1.00;;;;;;5114161;28;20278;-73
2021/10/09 02:42:06;;;;;;;58.47;2.90;;;5.90;1.00;;;;;;5113780;28;20632;-73
2021/10/09 02:44:33;;;;;;;58.13;2.75;;;5.90;1.00;;;;;;5113092;28;20230;-73
2021/10/09 02:47:01;;;;;;;58.80;2.95;;;5.90;1.00;;;;;;5113195;28;20229;-74
2021/10/09 02:49:28;;;;;;;58.35;3.20;;;5.80;1.00;;;;;;5113480;28;20320;-73
2021/10/09 02:51:55;;;;;;;58.60;3.45;;;5.80;1.00;;;;;;5113999;28;20295;-73
2021/10/09 02:54:22;;;;;;;58.58;3.03;;;5.70;1.00;;;;;;5114124;28;20296;-73
2021/10/09 02:56:49;;;;;;;58.88;3.20;;;5.60;1.00;;;;;;5113251;28;20236;-73
2021/10/09 02:59:16;;;;;;;58.55;3.05;;;5.50;1.00;;;;;;5113476;28;20306;-71
2021/10/09 03:01:43;;;;;;;58.47;2.90;;;5.40;1.00;;;;;;5128376;27;20293;-71
2021/10/09 03:04:11;;;;;;;58.78;3.10;;;5.40;1.00;;;;;;5133679;27;20227;-70
2021/10/09 03:06:38;;;;;;;59.20;3.65;;;5.40;1.00;;;;;;5133346;27;20245;-71
2021/10/09 03:09:04;;;;;;;58.58;2.78;;;5.30;1.00;;;;;;5134198;27;20598;-72
2021/10/09 03:11:31;;;;;;;58.35;2.92;;;5.30;1.00;;;;;;5133180;27;20205;-72
2021/10/09 03:13:58;;;;;;;59.20;3.85;;;5.30;1.00;;;;;;5133884;27;20206;-72
2021/10/09 03:16:25;;;;;;;58.70;2.88;;;5.40;1.00;;;;;;5133850;27;20216;-72
2021/10/09 03:18:52;;;;;;;60.42;3.13;;;5.40;1.00;;;;;;5133442;27;20314;-71
2021/10/09 03:21:21;;;;;;;58.67;2.92;;;5.40;1.00;;;;;;5133961;27;20254;-72
2021/10/09 03:23:48;;;;;;;58.40;3.15;;;5.50;1.00;;;;;;5133129;27;20714;-71
2021/10/09 03:26:15;;;;;;;58.28;3.15;;;5.50;1.00;;;;;;5133358;27;20457;-71
2021/10/09 03:28:41;;;;;;;58.35;2.80;;;5.40;1.00;;;;;;5133480;27;20229;-72
2021/10/09 03:31:08;;;;;;;58.40;2.88;;;5.40;1.00;;;;;;5133057;27;20290;-72
2021/10/09 03:33:35;;;;;;;58.25;3.20;;;5.30;1.00;;;;;;5131704;27;20698;-73
2021/10/09 03:36:02;;;;;;;58.58;3.05;;;5.20;1.00;;;;;;5133149;27;20218;-72
2021/10/09 03:38:31;;;;;;;58.70;3.00;;;5.20;1.00;;;;;;5133084;27;20306;-73
2021/10/09 03:41:01;;;;;;;59.30;3.10;;;5.20;1.00;;;;;;5133390;27;20198;-72
2021/10/09 03:43:28;;;;;;;58.60;3.10;;;5.20;1.00;;;;;;5133147;27;20222;-72
2021/10/09 03:46:00;;;;;;;58.38;2.90;;;5.20;1.00;;;;;;5132895;27;20198;-72
2021/10/09 03:48:36;;;;;;;58.80;3.30;;;5.20;1.00;;;;;;5133212;27;20271;-72
2021/10/09 03:53:49;;;;;;;58.88;3.50;;;5.20;1.00;;;;;;5132720;27;20298;-72
2021/10/09 03:56:16;;;;;;;58.22;3.30;;;5.10;1.00;;;;;;5132215;27;20239;-72
2021/10/09 03:58:43;;;;;;;58.90;3.10;;;5.10;1.00;;;;;;5133030;27;20310;-72
2021/10/09 04:01:09;;;;;;;58.85;3.20;;;5.10;1.00;;;;;;5133390;27;20298;-72
2021/10/09 04:03:36;;;;;;;58.38;2.80;;;5.10;1.00;;;;;;5132288;27;20317;-73
2021/10/09 04:06:03;;;;;;;58.22;3.20;;;5.20;1.00;;;;;;5131038;27;20280;-72
2021/10/09 04:08:30;;;;;;;58.25;2.95;;;5.10;1.00;;;;;;5133065;27;20245;-72
2021/10/09 04:10:58;;;;;;;58.80;2.95;;;5.10;1.00;;;;;;5132598;27;20299;-72
2021/10/09 04:13:25;;;;;;;58.25;3.30;;;5.10;1.00;;;;;;5132522;27;20678;-72
2021/10/09 04:15:52;;;;;;;59.30;3.95;;;5.10;1.00;;;;;;5132169;27;20293;-71
2021/10/09 04:18:19;;;;;;;58.47;2.88;;;5.00;1.00;;;;;;5132893;27;20313;-72
2021/10/09 04:20:46;;;;;;;58.67;2.85;;;5.00;1.00;;;;;;5132406;27;20742;-71
2021/10/09 04:23:13;;;;;;;57.60;2.90;;;5.00;1.00;;;;;;5132650;27;20218;-72
2021/10/09 04:25:39;;;;;;;58.25;3.13;;;5.10;1.00;;;;;;5131995;27;20298;-71
2021/10/09 04:28:08;;;;;;;58.60;2.90;;;5.20;1.00;;;;;;5132538;27;20306;-71
2021/10/09 04:30:35;;;;;;;58.50;3.13;;;5.20;1.00;;;;;;5132278;27;20290;-71
2021/10/09 04:33:02;;;;;;;58.92;3.03;;;5.20;1.00;;;;;;5132334;27;20290;-72
2021/10/09 04:35:29;;;;;;;58.20;3.10;;;5.20;1.00;;;;;;5130538;27;20306;-73
2021/10/09 04:37:56;;;;;;;58.65;2.90;;;5.20;1.00;;;;;;5132283;27;20258;-71
2021/10/09 04:40:23;;;;;;;58.67;3.17;;;5.20;1.00;;;;;;5132215;27;20203;-71
2021/10/09 04:42:50;;;;;;;58.92;3.95;;;5.30;1.00;;;;;;5132580;27;20294;-71
2021/10/09 04:45:18;;;;;;;60.00;3.40;;;5.30;1.00;;;;;;5131728;28;20317;-71
2021/10/09 04:47:45;;;;;;;58.40;2.85;;;5.30;1.00;;;;;;5131579;28;20289;-71
2021/10/09 04:50:12;;;;;;;58.45;3.20;;;5.30;1.00;;;;;;5132529;28;20207;-72
2021/10/09 04:52:38;;;;;;;58.38;3.05;;;5.30;1.00;;;;;;5132143;28;20235;-71
2021/10/09 04:55:06;;;;;;;58.63;3.10;;;5.30;1.00;;;;;;5132270;28;20220;-73
2021/10/09 04:57:33;;;;;;;59.00;3.10;;;5.30;1.00;;;;;;5131778;28;20204;-72
2021/10/09 05:00:00;;;;;;;58.22;2.95;;;5.30;1.00;;;;;;5131981;28;20586;-71
2021/10/09 05:02:28;;;;;;;58.65;3.05;;;5.20;1.00;;;;;;5132556;28;20203;-72
2021/10/09 05:04:55;;;;;;;58.38;2.85;;;5.20;1.00;;;;;;5131968;28;20750;-72
2021/10/09 05:07:22;;;;;;;58.28;2.80;;;5.10;1.00;;;;;;5135456;27;20297;-72
2021/10/09 05:09:50;;;;;;;58.25;3.05;;;5.10;1.00;;;;;;5134184;27;20306;-72
2021/10/09 05:12:17;;;;;;;58.33;3.10;;;5.00;1.00;;;;;;5135845;27;20218;-72
2021/10/09 05:14:45;;;;;;;58.35;3.10;;;5.00;1.00;;;;;;5135837;27;20249;-73
2021/10/09 05:17:11;;;;;;;58.42;3.28;;;4.90;1.00;;;;;;5135937;27;20210;-72
2021/10/09 05:19:40;;;;;;;59.17;3.40;;;4.90;1.00;;;;;;5136110;27;20313;-73
2021/10/09 05:22:06;;;;;;;58.53;2.80;;;4.80;1.00;;;;;;5136347;27;20293;-72
2021/10/09 05:24:33;;;;;;;58.38;2.80;;;4.80;1.00;;;;;;5135649;27;20224;-72
2021/10/09 05:27:00;;;;;;;58.78;3.10;;;4.70;1.00;;;;;;5135658;27;20203;-72
2021/10/09 05:29:27;;;;;;;57.72;2.85;;;4.70;1.00;;;;;;5135643;27;20235;-72
2021/10/09 05:32:03;;;;;;;58.70;3.40;;;4.60;1.00;;;;;;5135489;27;20202;-72
2021/10/09 05:34:30;;;;;;;58.58;3.00;;;4.60;1.00;;;;;;5136068;27;20207;-72
2021/10/09 05:36:58;;;;;;;58.47;2.90;;;4.60;1.00;;;;;;5135706;27;20587;-73
2021/10/09 05:39:25;;;;;;;60.60;3.83;;;4.50;1.00;;;;;;5135595;27;20740;-72
2021/10/09 05:41:52;;;;;;;58.78;2.97;;;4.50;1.00;;;;;;5133439;27;20209;-72
2021/10/09 05:44:19;;;;;;;58.40;2.80;;;4.50;1.00;;;;;;5135891;27;20234;-73
2021/10/09 05:46:46;;;;;;;58.25;2.90;;;4.50;1.00;;;;;;5135138;27;20234;-72
2021/10/09 05:49:14;;;;;;;58.45;2.65;;;4.50;1.00;;;;;;5135426;27;20223;-73
2021/10/09 05:51:50;;;;;;;58.40;2.63;;;4.50;1.00;;;;;;5135327;27;20211;-72
2021/10/09 05:54:22;;;;;;;58.35;2.85;;;4.50;1.00;;;;;;5135440;27;20255;-72
2021/10/09 05:56:55;;;;;;;58.67;2.85;;;4.50;1.00;;;;;;5135221;27;20209;-72
2021/10/09 06:49:34;;;;;;;58.17;2.50;;;4.90;1.00;;;;;;5113052;27;20249;-72
2021/10/09 07:00:15;;;;;;;58.05;3.00;;;5.10;1.00;;;;;;5134327;27;20681;-72
2021/10/09 07:02:43;;;;;;;57.97;3.17;;;5.10;1.00;;;;;;5134422;27;20214;-73
2021/10/09 07:05:12;;;;;;;58.13;3.15;;;5.20;1.00;;;;;;5133895;27;20223;-72
2021/10/09 07:07:41;;;;;;;58.58;2.90;;;5.30;1.00;;;;;;5134384;27;20210;-72
2021/10/09 07:10:09;;;;;;;59.17;3.78;;;5.40;1.00;;;;;;5133693;27;20203;-72
2021/10/09 07:12:36;;;;;;;58.60;2.80;;;5.40;1.00;;;;;;5133628;27;20663;-72
2021/10/09 07:15:04;;;;;;;58.30;2.70;;;5.50;1.00;;;;;;5133451;27;20205;-73
2021/10/09 07:17:32;;;;;;;58.50;2.70;;;5.60;1.00;;;;;;5133747;27;20213;-72
2021/10/09 07:19:59;;;;;;;58.10;2.72;;;5.60;1.00;;;;;;5133775;27;20295;-73
2021/10/09 07:22:26;;;;;;;58.75;3.22;;;5.70;1.00;;;;;;5131970;27;20290;-73
2021/10/09 07:24:53;;;;;;;58.17;2.70;;;5.80;1.00;;;;;;5133117;27;20698;-73
2021/10/09 07:27:20;;;;;;;58.15;2.85;;;5.90;1.00;;;;;;5133871;27;20208;-74
2021/10/09 07:29:47;;;;;;;58.35;2.80;;;6.00;1.00;;;;;;5133788;27;20330;-73
2021/10/09 07:32:14;;;;;;;58.40;2.80;;;6.10;1.00;;;;;;5132821;27;20667;-73
2021/10/09 07:34:44;;;;;;;58.53;2.95;;;6.20;1.00;;;;;;5133592;27;20252;-74
2021/10/09 07:37:11;;;;;;;58.47;3.20;;;6.30;1.00;;;;;;5132688;27;20293;-73
2021/10/09 07:39:38;;;;;;;58.58;3.30;;;6.30;1.00;;;;;;5133200;27;20335;-73
2021/10/09 07:42:05;;;;;;;59.78;2.85;;;6.50;1.00;;;;;;5133627;27;20200;-74
2021/10/09 07:44:32;;;;;;;58.58;2.80;;;6.50;1.00;;;;;;5133050;27;20317;-74
2021/10/09 07:47:01;;;;;;;58.17;2.60;;;6.60;1.00;;;;;;5133343;27;20204;-73
2021/10/09 07:49:28;;;;;;;60.75;3.85;;;6.70;1.00;;;;;;5133400;27;20226;-73
2021/10/09 07:51:56;;;;;;;58.50;2.90;;;6.80;1.00;;;;;;5132577;27;20204;-73
2021/10/09 07:54:23;;;;;;;59.38;3.13;;;7.00;1.00;;;;;;5131522;27;20261;-71
2021/10/09 07:56:50;;;;;;;58.45;2.70;;;7.10;1.00;;;;;;5132331;27;20214;-71
2021/10/09 07:59:17;;;;;;;59.40;3.30;;;7.20;1.00;;;;;;5132648;27;20227;-72
2021/10/09 08:01:43;;;;;;;58.33;2.63;;;7.40;1.00;;;;;;5133296;27;20212;-73
2021/10/09 08:04:14;;;;;;;59.27;3.40;;;7.50;1.00;;;;;;5132445;27;20475;-71
2021/10/09 08:06:41;;;;;;;58.33;2.77;;;7.70;1.00;;;;;;5133022;27;20529;-72
2021/10/09 08:09:09;;;;;;;58.37;3.30;;;7.80;2.40;;;;;;5133245;27;21050;-72
2021/10/09 08:11:36;;;;;;;58.50;3.30;;;8.00;4.60;;;;;;5132018;27;20950;-72
2021/10/09 08:14:04;;;;;;;58.67;3.20;;;8.20;6.00;;;;;;5132598;27;20562;-72
2021/10/09 08:16:31;;;;;;;59.33;3.57;;;8.30;7.50;;;;;;5132090;27;20529;-72
2021/10/09 08:18:59;;;;;;;58.43;2.50;;;8.50;8.90;;;;;;5132101;27;21067;-72
2021/10/09 08:21:27;;;;;;;58.67;3.30;;;8.60;8.70;;;;;;5132911;27;20471;-71
2021/10/09 08:23:58;;;;;;;58.57;3.07;;;8.80;8.10;;;;;;5131037;27;20461;-73
2021/10/09 08:26:48;;;;;;;58.27;2.67;;;8.90;8.40;;;;;;5132024;27;20466;-71
2021/10/09 08:40:16;;;;;;;58.17;2.60;;;9.70;3.80;;;;;;5105018;27;20424;-72
2021/10/09 08:42:45;;;;;;;60.57;3.80;;;9.80;1.80;;;;;;5132318;27;20897;-72
2021/10/09 08:45:13;;;;;;;58.27;2.90;;;9.90;1.00;;;;;;5131987;27;20479;-71
2021/10/09 08:47:41;;;;;;;58.70;3.53;;;10.00;1.00;;;;;;5132606;27;20876;-72
2021/10/09 08:50:10;;;;;;;58.30;3.00;;;10.10;1.00;;;;;;5132998;28;20455;-72
2021/10/09 08:52:37;;;;;;;58.30;2.73;;;10.20;1.00;;;;;;5130985;27;20452;-72
2021/10/09 08:55:23;;;;;;;58.40;2.80;;;10.30;1.00;;;;;;5132085;28;20475;-71
2021/10/09 08:57:54;;;;;;;58.20;2.57;;;10.70;7.70;;;;;;5111328;28;20876;-72
2021/10/09 09:00:38;;;;;;;58.33;2.77;;;11.30;26.00;;;;;;5110827;28;20502;-71
2021/10/09 09:03:08;;;;;;;58.33;2.83;;;11.60;30.00;;;;;;5111807;28;20449;-72
2021/10/09 09:05:41;;;;;;;59.50;3.80;;;11.70;19.30;;;;;;5110123;28;20519;-72
2021/10/09 09:27:55;;;;;;;58.23;3.10;;;12.40;1.00;;;;;;5112889;27;20525;-72
2021/10/09 09:36:06;;;;;;;58.30;3.20;;;13.30;1.00;;;;;;5096905;28;20436;-72
2021/10/09 09:41:26;;;;;;;58.20;2.80;;;14.10;1.00;;;;;;5128470;27;20942;-72
2021/10/09 09:43:54;;;;;;;58.40;3.47;;;15.30;1.00;;;;;;5132441;28;20810;-72
2021/10/09 09:46:24;;;;;;;57.97;2.60;;;16.40;1.00;;;;;;5131315;28;20476;-72
2021/10/09 09:48:52;;;;;;;60.40;4.03;;;17.70;1.00;;;;;;5132025;28;20990;-72
2021/10/09 09:51:21;;;;;;;58.50;3.10;;;18.90;1.00;;;;;;5132277;28;20441;-72
2021/10/09 09:53:50;;;;;;;59.00;3.60;;;19.90;1.00;;;;;;5134603;27;21007;-73
2021/10/09 09:56:18;;;;;;;58.03;3.30;;;20.90;1.00;;;;;;5134980;27;21039;-73
2021/10/09 09:58:51;;;;;;;58.07;2.67;;;21.80;1.00;;;;;;5133572;27;21041;-72
2021/10/09 10:01:19;;;;;;;59.20;3.07;;;22.50;1.00;;;;;;5134992;27;20895;-72
2021/10/09 10:03:49;;;;;;;58.70;2.80;;;22.90;1.00;;;;;;5135440;27;20449;-73
2021/10/09 10:06:16;;;;;;;58.43;2.77;;;23.10;1.00;;;;;;5134516;27;20563;-72
2021/10/09 10:08:43;;;;;;;60.43;3.27;;;23.10;1.00;;;;;;5135280;27;20467;-72
2021/10/09 10:11:12;;;;;;;58.17;2.67;;;23.40;1.00;;;;;;5135788;27;20447;-72
2021/10/09 10:13:41;;;;;;;58.00;2.67;;;24.00;1.00;;;;;;5135320;27;20533;-71
2021/10/09 10:16:11;;;;;;;58.20;3.10;;;24.60;1.00;;;;;;5134116;27;20455;-73
2021/10/09 10:18:58;;;;;;;57.93;2.33;;;25.10;1.00;;;;;;5134799;27;20551;-71
2021/10/09 10:21:47;;;;;;;58.33;3.20;;;25.30;1.00;;;;;;5134455;27;20804;-72
2021/10/09 10:24:47;;;;;;;59.37;3.90;;;25.50;1.00;;;;;;5134664;27;20539;-71
2021/10/09 10:27:34;;;;;;;58.47;2.77;;;25.80;1.00;;;;;;5133927;27;20497;-72
2021/10/09 10:30:26;;;;;;;58.53;3.40;;;25.90;1.00;;;;;;5132812;27;20540;-72
2021/10/09 10:36:41;;;;;;;58.17;2.77;;;26.10;1.00;;;;;;5132865;27;20476;-72
2021/10/09 10:39:08;;;;;;;58.00;2.90;;;26.40;1.00;;;;;;5134233;27;20996;-73
2021/10/09 10:41:45;;;;;;;58.97;3.03;;;26.90;1.00;;;;;;5134152;27;20949;-73
2021/10/09 10:44:45;;;;;;;58.67;3.20;;;27.10;1.00;;;;;;5134627;27;20477;-72
2021/10/09 10:47:42;;;;;;;60.20;3.17;;;27.50;1.00;;;;;;5133951;27;20446;-72
2021/10/09 10:50:29;;;;;;;58.10;3.07;;;27.40;1.00;;;;;;5134536;27;20786;-72
2021/10/09 10:52:59;;;;;;;58.30;3.10;;;27.60;1.00;;;;;;5134506;27;20501;-72
2021/10/09 10:55:26;;;;;;;58.97;2.93;;;28.10;1.00;;;;;;5133802;27;20490;-73
2021/10/09 10:58:21;;;;;;;58.53;3.40;;;28.50;1.00;;;;;;5133973;27;20451;-72
2021/10/09 11:01:15;;;;;;;59.00;3.53;;;28.80;1.00;;;;;;5134048;27;20471;-73
2021/10/09 11:03:46;;;;;;;58.37;2.90;;;29.00;1.00;;;;;;5113068;28;20531;-72
2021/10/09 11:06:15;;;;;;;58.17;2.77;;;29.10;1.00;;;;;;5113479;28;20445;-72
2021/10/09 11:08:44;;;;;;;58.67;3.03;;;29.40;1.00;;;;;;5113247;28;20556;-72
2021/10/09 11:11:12;;;;;;;58.30;2.70;;;29.90;1.00;;;;;;5113577;28;20557;-72
2021/10/09 11:13:41;;;;;;;58.07;3.00;;;30.40;1.00;;;;;;5113896;28;20824;-72
2021/10/09 11:16:08;;;;;;;57.70;2.50;;;30.50;1.00;;;;;;5112661;28;20783;-72
2021/10/09 11:18:51;;;;;;;57.30;2.30;;;30.40;1.00;;;;;;5113133;28;20552;-72
2021/10/09 11:21:19;;;;;;;58.17;2.63;;;30.40;1.00;;;;;;5112655;28;20447;-73
2021/10/09 11:23:52;;;;;;;57.30;2.30;;;30.40;1.00;;;;;;5113156;28;20481;-72
2021/10/09 11:26:19;;;;;;;57.83;2.37;;;30.70;1.00;;;;;;5112739;28;20942;-72
2021/10/09 11:28:46;;;;;;;58.17;3.23;;;31.00;1.00;;;;;;5112726;28;20552;-72
2021/10/09 11:31:25;;;;;;;57.60;2.53;;;31.50;1.00;;;;;;5113616;28;20442;-72
2021/10/09 11:33:57;;;;;;;58.03;2.63;;;31.70;1.00;;;;;;5125560;27;20448;-72
2021/10/09 11:36:24;;;;;;;59.10;3.33;;;32.00;1.00;;;;;;5132763;27;20488;-72
2021/10/09 11:39:03;;;;;;;58.00;2.30;;;32.40;1.00;;;;;;5133051;27;20468;-73
2021/10/09 11:41:30;;;;;;;57.37;2.43;;;32.80;1.00;;;;;;5133239;27;20455;-72
2021/10/09 11:44:01;;;;;;;58.07;3.17;;;33.10;1.00;;;;;;5132484;27;20444;-72
2021/10/09 11:54:54;;;;;;;57.87;3.07;;;33.10;1.00;;;;;;5133317;27;20424;-72
2021/10/09 11:57:21;;;;;;;57.67;2.70;;;32.80;1.00;;;;;;5132285;27;20512;-72
2021/10/09 11:59:47;;;;;;;57.80;3.00;;;32.70;1.00;;;;;;5132656;27;20833;-71
2021/10/09 12:02:34;;;;;;;57.77;2.63;;;33.00;1.00;;;;;;5132465;27;20880;-72
2021/10/09 12:05:01;;;;;;;57.70;2.87;;;32.60;1.00;;;;;;5133689;27;20509;-73
2021/10/09 12:07:28;;;;;;;58.33;2.97;;;32.20;1.00;;;;;;5135782;27;20476;-72
2021/10/09 12:10:00;;;;;;;59.60;3.40;;;32.00;1.00;;;;;;5138624;27;20536;-72
2021/10/09 12:12:32;;;;;;;57.57;2.90;;;31.70;1.00;;;;;;5138751;27;20459;-72
2021/10/09 12:14:59;;;;;;;57.70;2.63;;;31.90;1.00;;;;;;5138117;27;20445;-72
2021/10/09 12:17:37;;;;;;;57.47;2.70;;;32.50;1.00;;;;;;5135961;27;20437;-72
2021/10/09 12:20:06;;;;;;;57.97;2.77;;;33.40;1.00;;;;;;5137434;27;20523;-72
2021/10/09 12:22:44;;;;;;;57.53;2.43;;;33.90;1.00;;;;;;5137420;27;20536;-72
2021/10/09 12:25:25;;;;;;;58.63;2.60;;;34.00;1.00;;;;;;5132261;27;20834;-72
2021/10/09 12:27:56;;;;;;;57.87;2.40;;;34.10;1.00;;;;;;5132728;27;20497;-72
2021/10/09 12:30:34;;;;;;;56.97;1.90;;;34.40;1.00;;;;;;5132856;27;20451;-72
2021/10/09 12:33:01;;;;;;;57.57;2.70;;;34.40;1.00;;;;;;5133156;27;20873;-72
2021/10/09 12:35:31;;;;;;;57.53;3.37;;;34.80;1.00;;;;;;5123892;27;20477;-72
2021/10/09 12:37:59;;;;;;;58.23;3.10;;;35.00;1.00;;;;;;5111433;28;20469;-71
2021/10/09 12:40:29;;;;;;;57.77;2.80;;;34.70;1.00;;;;;;5111527;28;20481;-72
2021/10/09 12:42:57;;;;;;;57.43;2.63;;;34.20;1.00;;;;;;5112082;28;20628;-72
2021/10/09 12:45:26;;;;;;;57.60;2.60;;;33.80;1.00;;;;;;5111421;28;20887;-72
2021/10/09 12:47:54;;;;;;;57.53;2.67;;;33.80;1.00;;;;;;5112211;28;20446;-72
2021/10/09 12:50:20;;;;;;;60.20;4.00;;;33.80;1.00;;;;;;5111686;28;20945;-72
2021/10/09 12:52:48;;;;;;;57.67;2.77;;;34.20;1.00;;;;;;5112810;28;20864;-73
2021/10/09 12:55:15;;;;;;;57.07;2.23;;;34.80;1.00;;;;;;5111674;28;20446;-72
2021/10/09 12:57:53;;;;;;;58.33;3.40;;;35.20;1.00;;;;;;5111215;28;20445;-72
2021/10/09 13:00:22;;;;;;;57.40;2.63;;;35.30;1.00;;;;;;5111902;28;20447;-72
2021/10/09 13:02:51;;;;;;;58.87;3.20;;;35.70;1.00;;;;;;5111855;28;20451;-72
2021/10/09 13:05:18;;;;;;;57.87;3.27;;;36.10;1.00;;;;;;5111311;28;20449;-72
2021/10/09 13:07:45;;;;;;;57.27;2.90;;;35.50;1.00;;;;;;5125315;28;20455;-73
2021/10/09 13:10:12;;;;;;;57.70;2.50;;;34.90;1.00;;;;;;5132124;28;21020;-73
2021/10/09 13:12:39;;;;;;;57.90;2.47;;;34.70;1.00;;;;;;5132769;28;20445;-73
2021/10/09 13:15:08;;;;;;;57.93;2.67;;;34.60;1.00;;;;;;5132569;28;20531;-73
2021/10/09 13:17:35;;;;;;;57.17;2.20;;;34.40;1.00;;;;;;5130067;28;20558;-73
2021/10/09 13:20:02;;;;;;;57.40;2.60;;;34.40;1.00;;;;;;5131978;28;20480;-73
2021/10/09 13:22:28;;;;;;;57.30;2.70;;;34.40;1.00;;;;;;5132103;28;20876;-73
2021/10/09 13:24:55;;;;;;;59.97;3.00;;;34.40;1.00;;;;;;5131841;28;20936;-73
2021/10/09 13:27:22;;;;;;;58.00;2.43;;;34.40;1.00;;;;;;5133547;27;20524;-72
2021/10/09 13:29:49;;;;;;;57.83;3.47;;;34.60;1.00;;;;;;5135980;27;20894;-72
2021/10/09 13:32:17;;;;;;;57.20;2.20;;;34.60;1.00;;;;;;5136374;27;20539;-73
2021/10/09 13:34:44;;;;;;;57.40;2.50;;;34.70;1.00;;;;;;5136150;27;20455;-72
2021/10/09 13:37:12;;;;;;;57.80;3.13;;;34.90;1.00;;;;;;5135515;27;20591;-73
2021/10/09 13:39:39;;;;;;;57.07;2.20;;;35.40;1.00;;;;;;5134538;27;20995;-72
2021/10/09 13:42:06;;;;;;;57.27;2.60;;;35.70;1.00;;;;;;5135592;27;20531;-72
2021/10/09 13:44:33;;;;;;;56.90;2.23;;;36.10;1.00;;;;;;5136043;27;20451;-72
2021/10/09 13:47:00;;;;;;;56.83;2.20;;;35.70;1.00;;;;;;5135201;27;20447;-72
2021/10/09 13:49:28;;;;;;;58.77;3.10;;;35.10;1.00;;;;;;5135525;27;20549;-72
2021/10/09 13:51:55;;;;;;;59.63;2.27;;;34.90;1.00;;;;;;5136234;27;20480;-70
2021/10/09 13:54:22;;;;;;;57.60;2.10;;;34.90;1.00;;;;;;5135984;27;20527;-71
2021/10/09 13:56:49;;;;;;;58.50;3.30;;;34.80;1.00;;;;;;5135566;27;20839;-72
2021/10/09 13:59:16;;;;;;;57.40;2.73;;;34.80;1.00;;;;;;5134958;27;20910;-71
2021/10/09 14:01:44;;;;;;;57.40;2.40;;;35.10;1.00;;;;;;5135165;27;20532;-71
2021/10/09 14:04:11;;;;;;;63.30;2.87;;;35.20;1.00;;;;;;5135755;27;20556;-72
2021/10/09 14:06:39;;;;;;;57.60;2.63;;;35.00;1.00;;;;;;5134914;27;20791;-71
2021/10/09 14:09:06;;;;;;;59.33;3.13;;;34.90;1.00;;;;;;5133749;27;20562;-72
2021/10/09 14:11:34;;;;;;;57.50;2.50;;;34.30;1.00;;;;;;5135395;27;20437;-72
2021/10/09 14:14:01;;;;;;;57.63;2.60;;;34.30;1.00;;;;;;5135733;27;20539;-72
2021/10/09 14:16:28;;;;;;;56.87;2.33;;;34.90;1.00;;;;;;5134888;27;20571;-71
2021/10/09 14:18:55;;;;;;;57.70;2.80;;;35.40;1.00;;;;;;5134649;27;20551;-71
2021/10/09 14:21:22;;;;;;;57.50;3.10;;;35.70;1.00;;;;;;5135232;27;20531;-71
2021/10/09 14:23:50;;;;;;;57.20;2.10;;;35.70;1.00;;;;;;5134916;27;20451;-71
2021/10/09 14:26:17;;;;;;;57.80;2.60;;;35.60;1.00;;;;;;5134662;27;20531;-71
2021/10/09 14:28:44;;;;;;;57.10;2.40;;;35.40;1.00;;;;;;5134870;27;20465;-72
2021/10/09 14:31:10;;;;;;;58.60;3.50;;;35.20;1.00;;;;;;5134698;27;20487;-71
2021/10/09 14:33:37;;;;;;;57.50;2.30;;;34.60;1.00;;;;;;5135269;27;20887;-72
2021/10/09 14:36:04;;;;;;;60.03;4.53;;;34.10;1.00;;;;;;5134540;27;20482;-71
2021/10/09 14:38:31;;;;;;;57.20;1.93;;;34.10;1.00;;;;;;5133735;27;20471;-71
2021/10/09 14:40:59;;;;;;;59.50;4.00;;;34.30;1.00;;;;;;5132286;27;20536;-72
2021/10/09 14:43:26;;;;;;;57.67;2.23;;;34.10;1.00;;;;;;5134329;27;20480;-72
2021/10/09 14:45:58;;;;;;;57.80;2.63;;;34.20;1.00;;;;;;5133984;27;20444;-71
2021/10/09 14:48:31;;;;;;;63.27;3.73;;;34.10;1.00;;;;;;5134226;27;20525;-72
2021/10/09 14:53:54;;;;;;;57.47;2.20;;;33.70;1.00;;;;;;5132393;27;20485;-71
2021/10/09 15:18:21;;;;;;;57.53;2.70;;;31.30;1.00;;;;;;5134575;27;20463;-72
2021/10/09 15:20:48;;;;;;;57.90;2.60;;;30.90;1.00;;;;;;5133568;27;20451;-72
2021/10/09 15:23:15;;;;;;;58.10;2.70;;;30.50;1.00;;;;;;5133448;27;20441;-72
2021/10/09 15:25:43;;;;;;;58.27;2.50;;;30.40;1.00;;;;;;5133162;27;20539;-72